createdAt,value
2019-03-30T00:00:32.331Z,94.70
2019-03-30T00:03:01.134Z,94.80
2019-03-30T00:05:29.935Z,94.60
2019-03-30T00:07:58.757Z,94.50
2019-03-30T00:10:27.538Z,94.70
2019-03-30T00:12:56.387Z,94.70
2019-03-30T00:15:25.174Z,94.70
2019-03-30T00:17:53.983Z,94.80
2019-03-30T00:20:22.792Z,95.00
2019-03-30T00:22:51.585Z,94.90
2019-03-30T00:25:20.449Z,95.60
2019-03-30T00:27:49.252Z,95.80
2019-03-30T00:30:19.262Z,95.60
2019-03-30T00:32:48.258Z,95.60
2019-03-30T00:35:17.945Z,95.20
2019-03-30T00:37:47.173Z,95.00
2019-03-30T00:40:15.988Z,95.30
2019-03-30T00:42:44.796Z,95.40
2019-03-30T00:45:13.602Z,95.40
2019-03-30T00:47:42.403Z,95.10
2019-03-30T00:50:11.255Z,94.80
2019-03-30T00:52:40.323Z,94.70
2019-03-30T00:55:09.128Z,94.50
2019-03-30T00:57:37.935Z,94.60
2019-03-30T01:00:06.894Z,94.90
2019-03-30T01:02:35.699Z,94.80
2019-03-30T01:05:05.894Z,94.80
2019-03-30T01:07:35.231Z,94.80
2019-03-30T01:10:05.825Z,94.80
2019-03-30T01:12:34.630Z,94.60
2019-03-30T01:15:05.042Z,94.20
2019-03-30T01:17:35.683Z,94.40
2019-03-30T01:20:07.550Z,94.50
2019-03-30T01:22:36.482Z,94.40
2019-03-30T01:25:06.762Z,94.50
2019-03-30T01:27:35.567Z,94.60
2019-03-30T01:30:05.667Z,94.50
2019-03-30T01:32:35.100Z,94.50
2019-03-30T01:35:05.923Z,94.60
2019-03-30T01:37:35.588Z,94.80
2019-03-30T01:40:06.136Z,94.80
2019-03-30T01:42:35.915Z,94.80
2019-03-30T01:45:08.086Z,94.80
2019-03-30T01:47:36.874Z,94.90
2019-03-30T01:50:17.145Z,94.90
2019-03-30T01:52:39.441Z,95.10
2019-03-30T01:55:08.258Z,95.00
2019-03-30T01:57:37.070Z,95.00
2019-03-30T02:00:07.286Z,95.10
2019-03-30T02:02:36.228Z,94.90
2019-03-30T02:05:06.314Z,94.80
2019-03-30T02:07:35.155Z,95.10
2019-03-30T02:10:04.846Z,94.70
2019-03-30T02:12:33.646Z,94.60
2019-03-30T02:15:02.448Z,94.70
2019-03-30T02:17:32.239Z,94.80
2019-03-30T02:20:01.069Z,94.80
2019-03-30T02:22:29.876Z,94.80
2019-03-30T02:24:58.679Z,94.70
2019-03-30T02:27:27.510Z,94.60
2019-03-30T02:29:56.309Z,94.50
2019-03-30T02:32:27.062Z,94.70
2019-03-30T02:34:56.025Z,94.80
2019-03-30T02:37:24.839Z,94.90
2019-03-30T02:39:53.660Z,94.90
2019-03-30T02:42:22.491Z,95.00
2019-03-30T02:44:51.289Z,95.00
2019-03-30T02:47:20.112Z,94.90
2019-03-30T02:49:49.395Z,95.00
2019-03-30T02:52:18.211Z,95.00
2019-03-30T02:54:48.123Z,94.90
2019-03-30T02:57:16.915Z,94.80
2019-03-30T02:59:45.757Z,94.60
2019-03-30T03:02:14.537Z,94.70
2019-03-30T03:04:43.334Z,94.70
2019-03-30T03:07:12.196Z,94.80
2019-03-30T03:09:40.998Z,94.80
2019-03-30T03:12:09.807Z,94.80
2019-03-30T03:14:38.659Z,94.80
2019-03-30T03:17:07.456Z,94.80
2019-03-30T03:19:36.253Z,94.80
2019-03-30T03:22:05.113Z,94.70
2019-03-30T03:24:33.907Z,94.60
2019-03-30T03:27:02.704Z,94.60
2019-03-30T03:29:31.542Z,94.70
2019-03-30T03:32:00.407Z,94.80
2019-03-30T03:34:29.147Z,94.90
2019-03-30T03:36:58.009Z,95.00
2019-03-30T03:39:27.943Z,94.80
2019-03-30T03:41:56.736Z,94.30
2019-03-30T03:44:25.560Z,94.30
2019-03-30T03:46:54.352Z,94.60
2019-03-30T03:49:23.208Z,94.80
2019-03-30T03:51:52.399Z,94.80
2019-03-30T03:54:21.203Z,94.80
2019-03-30T03:56:50.809Z,94.50
2019-03-30T03:59:20.011Z,94.70
2019-03-30T04:01:48.924Z,94.50
2019-03-30T04:04:19.196Z,94.50
2019-03-30T04:06:49.534Z,94.00
2019-03-30T04:09:19.807Z,94.30
2019-03-30T04:11:50.195Z,94.70
2019-03-30T04:14:20.515Z,94.50
2019-03-30T04:16:50.346Z,94.70
2019-03-30T04:19:19.154Z,95.30
2019-03-30T04:21:47.955Z,95.10
2019-03-30T04:24:16.758Z,95.00
2019-03-30T04:26:45.556Z,94.80
2019-03-30T04:29:14.415Z,94.80
2019-03-30T04:31:43.215Z,95.00
2019-03-30T04:34:12.015Z,95.00
2019-03-30T04:36:40.845Z,95.00
2019-03-30T04:39:09.619Z,94.90
2019-03-30T04:41:38.449Z,95.00
2019-03-30T04:44:07.274Z,95.10
2019-03-30T04:46:36.392Z,95.20
2019-03-30T04:49:05.186Z,95.00
2019-03-30T04:51:33.985Z,94.30
2019-03-30T04:54:02.913Z,94.10
2019-03-30T04:56:31.638Z,94.40
2019-03-30T04:59:00.438Z,94.60
2019-03-30T05:01:29.287Z,94.70
2019-03-30T05:03:58.095Z,94.90
2019-03-30T05:06:28.459Z,95.00
2019-03-30T05:08:57.263Z,95.00
2019-03-30T05:11:26.051Z,95.20
2019-03-30T05:13:54.899Z,95.10
2019-03-30T05:16:23.710Z,95.20
2019-03-30T05:18:52.503Z,95.40
2019-03-30T05:21:22.359Z,95.40
2019-03-30T05:23:51.146Z,95.40
2019-03-30T05:26:19.959Z,95.40
2019-03-30T05:28:48.755Z,95.30
2019-03-30T05:31:17.560Z,95.20
2019-03-30T05:33:46.399Z,95.20
2019-03-30T05:36:15.196Z,95.20
2019-03-30T05:38:44.008Z,95.10
2019-03-30T05:41:13.655Z,95.10
2019-03-30T05:43:42.454Z,95.20
2019-03-30T05:46:11.266Z,95.10
2019-03-30T05:48:40.088Z,95.00
2019-03-30T05:51:08.887Z,94.90
2019-03-30T05:53:38.901Z,94.80
2019-03-30T05:56:07.735Z,94.70
2019-03-30T05:58:36.527Z,94.90
2019-03-30T06:01:05.330Z,94.90
2019-03-30T06:03:34.207Z,94.90
2019-03-30T06:06:03.013Z,94.80
2019-03-30T06:08:31.811Z,94.60
2019-03-30T06:11:00.618Z,94.50
2019-03-30T06:13:29.423Z,94.30
2019-03-30T06:15:58.272Z,94.40
2019-03-30T06:18:28.087Z,94.80
2019-03-30T06:20:56.918Z,94.50
2019-03-30T06:23:25.717Z,94.30
2019-03-30T06:25:54.522Z,94.40
2019-03-30T06:28:23.393Z,94.30
2019-03-30T06:30:52.192Z,94.20
2019-03-30T06:33:20.987Z,94.00
2019-03-30T06:35:49.804Z,94.30
2019-03-30T06:38:18.605Z,93.70
2019-03-30T06:40:47.449Z,93.50
2019-03-30T06:43:17.064Z,93.50
2019-03-30T06:45:45.866Z,93.50
2019-03-30T06:48:14.674Z,93.30
2019-03-30T06:50:44.492Z,93.20
2019-03-30T06:53:13.331Z,92.90
2019-03-30T06:55:42.139Z,92.70
2019-03-30T06:58:10.937Z,92.50
2019-03-30T07:00:39.750Z,92.20
2019-03-30T07:03:08.544Z,91.90
2019-03-30T07:05:38.846Z,91.90
2019-03-30T07:08:09.112Z,91.80
2019-03-30T07:10:39.038Z,91.70
2019-03-30T07:13:08.636Z,91.40
2019-03-30T07:15:38.951Z,91.40
2019-03-30T07:18:07.750Z,91.40
2019-03-30T07:20:36.566Z,91.10
2019-03-30T07:23:11.653Z,91.10
2019-03-30T07:25:35.852Z,90.90
2019-03-30T07:28:04.659Z,90.40
2019-03-30T07:30:33.474Z,90.30
2019-03-30T07:33:02.578Z,90.30
2019-03-30T07:35:31.423Z,90.00
2019-03-30T07:38:00.215Z,89.90
2019-03-30T07:40:29.024Z,90.00
2019-03-30T07:42:58.121Z,89.00
2019-03-30T07:45:26.926Z,88.20
2019-03-30T07:47:55.783Z,88.20
2019-03-30T07:50:24.573Z,88.60
2019-03-30T07:52:53.379Z,88.20
2019-03-30T07:55:22.233Z,88.00
2019-03-30T07:57:52.401Z,86.80
2019-03-30T08:00:21.223Z,86.20
2019-03-30T08:02:50.034Z,85.40
2019-03-30T08:05:19.238Z,84.90
2019-03-30T08:07:48.079Z,84.00
2019-03-30T08:10:16.884Z,83.40
2019-03-30T08:12:46.856Z,83.20
2019-03-30T08:15:15.727Z,81.70
2019-03-30T08:17:44.523Z,81.30
2019-03-30T08:20:13.469Z,80.90
2019-03-30T08:22:42.271Z,80.10
2019-03-30T08:25:11.078Z,79.60
2019-03-30T08:27:40.886Z,79.30
2019-03-30T08:30:09.997Z,76.20
2019-03-30T08:32:38.802Z,74.70
2019-03-30T08:35:07.816Z,75.50
2019-03-30T08:37:36.650Z,74.90
2019-03-30T08:40:05.638Z,75.20
2019-03-30T08:42:34.451Z,73.50
2019-03-30T08:45:03.649Z,65.50
2019-03-30T08:47:32.466Z,65.20
2019-03-30T08:50:01.314Z,65.20
2019-03-30T08:52:30.114Z,64.20
2019-03-30T08:54:58.914Z,63.50
2019-03-30T08:57:27.717Z,63.70
2019-03-30T08:59:56.519Z,63.50
2019-03-30T09:02:25.379Z,62.10
2019-03-30T09:04:54.184Z,63.10
2019-03-30T09:07:22.995Z,61.20
2019-03-30T09:09:51.803Z,61.10
2019-03-30T09:12:21.698Z,61.10
2019-03-30T09:14:50.534Z,62.50
2019-03-30T09:17:19.342Z,61.90
2019-03-30T09:19:48.149Z,60.30
2019-03-30T09:22:16.966Z,62.00
2019-03-30T09:24:45.767Z,62.10
2019-03-30T09:27:14.615Z,60.70
2019-03-30T09:29:43.423Z,59.20
2019-03-30T09:32:14.840Z,61.10
2019-03-30T09:34:42.710Z,61.00
2019-03-30T09:37:11.611Z,57.80
2019-03-30T09:39:40.418Z,58.80
2019-03-30T09:42:09.254Z,58.90
2019-03-30T09:44:38.054Z,57.50
2019-03-30T09:47:07.653Z,57.60
2019-03-30T09:49:36.463Z,58.80
2019-03-30T09:52:05.258Z,57.80
2019-03-30T09:54:34.089Z,57.00
2019-03-30T09:57:02.952Z,56.50
2019-03-30T09:59:31.800Z,53.20
2019-03-30T10:02:00.601Z,53.80
2019-03-30T10:04:29.425Z,53.90
2019-03-30T10:06:58.321Z,53.70
2019-03-30T10:09:27.326Z,52.90
2019-03-30T10:11:56.299Z,52.80
2019-03-30T10:14:25.107Z,53.30
2019-03-30T10:16:53.903Z,52.00
2019-03-30T10:19:22.742Z,52.50
2019-03-30T10:21:51.533Z,52.20
2019-03-30T10:24:20.358Z,52.20
2019-03-30T10:26:49.215Z,52.90
2019-03-30T10:29:18.010Z,52.80
2019-03-30T10:31:46.938Z,52.40
2019-03-30T10:34:15.742Z,51.50
2019-03-30T10:36:44.556Z,49.60
2019-03-30T10:39:13.403Z,49.60
2019-03-30T10:41:42.203Z,50.50
2019-03-30T10:44:11.017Z,50.90
2019-03-30T10:46:39.831Z,50.90
2019-03-30T10:49:08.642Z,49.20
2019-03-30T10:51:37.479Z,46.50
2019-03-30T10:54:06.284Z,46.60
2019-03-30T10:56:35.405Z,48.00
2019-03-30T10:59:04.210Z,48.70
2019-03-30T11:01:33.017Z,48.20
2019-03-30T11:04:01.827Z,45.80
2019-03-30T11:06:30.622Z,46.40
2019-03-30T11:08:59.458Z,47.10
2019-03-30T11:11:29.111Z,47.30
2019-03-30T11:13:58.886Z,45.80
